KGPH

Midwest National Air Center Airport

Mosby, Missouri, USA
METAR KGPH 151655Z AUTO 01003KT 10SM CLR 06/M05 A3021 RMK AO2
Observed Flight Rules
Dec-15 @ 16:55 UTC (21 minutes ago) Visual Flight Rules
Wind Visibility Clouds
10° at 3 knots 10 miles
  • Clear skies
Temperatures Readings
Current 6°C / 43°F
Dewpoint -5°C / 23°F
Humidity 46%
Altimeter 30.21" Hg
Pressure 1023 hPa
Elevation 235
METAR KGPH 151655Z AUTO 01003KT 10SM CLR 06/M05 A3021 RMK AO2
Observed Flight Rules
Dec-15 @ 16:55 UTC
(21 minutes ago)
VFR
Wind Visibility
10° at 3 knots 10 miles
Clouds
  • Clear skies
Temperature Dewpoint
6°C / 43°F -5°C / 23°F
Humidity Altimeter Pressure
46% 30.21" Hg 1023 hPa